sensor_id;sensor_type;location;lat;lon;timestamp;P1;durP1;ratioP1;P2;durP2;ratioP2
4309;SDS011;2168;53.576;9.980;2023-04-08T00:00:52;0.10;;;0.10;;
4309;SDS011;2168;53.576;9.980;2023-04-08T00:03:17;0.20;;;0.20;;
4309;SDS011;2168;53.576;9.980;2023-04-08T00:05:43;0.10;;;0.10;;
4309;SDS011;2168;53.576;9.980;2023-04-08T00:08:08;0.10;;;0.10;;
4309;SDS011;2168;53.576;9.980;2023-04-08T00:10:33;0.10;;;0.10;;
4309;SDS011;2168;53.576;9.980;2023-04-08T00:12:58;0.20;;;0.20;;
4309;SDS011;2168;53.576;9.980;2023-04-08T00:15:25;0.10;;;0.10;;
4309;SDS011;2168;53.576;9.980;2023-04-08T00:17:50;0.40;;;0.40;;
4309;SDS011;2168;53.576;9.980;2023-04-08T00:20:17;0.10;;;0.10;;
4309;SDS011;2168;53.576;9.980;2023-04-08T00:22:42;0.10;;;0.10;;
4309;SDS011;2168;53.576;9.980;2023-04-08T00:25:07;0.10;;;0.10;;
4309;SDS011;2168;53.576;9.980;2023-04-08T00:27:33;0.20;;;0.20;;
4309;SDS011;2168;53.576;9.980;2023-04-08T00:29:58;0.10;;;0.10;;
4309;SDS011;2168;53.576;9.980;2023-04-08T00:32:24;0.10;;;0.10;;
4309;SDS011;2168;53.576;9.980;2023-04-08T00:34:49;0.20;;;0.20;;
4309;SDS011;2168;53.576;9.980;2023-04-08T00:37:14;1.50;;;1.40;;
4309;SDS011;2168;53.576;9.980;2023-04-08T00:39:40;1.83;;;1.37;;
4309;SDS011;2168;53.576;9.980;2023-04-08T00:42:05;11.27;;;7.23;;
4309;SDS011;2168;53.576;9.980;2023-04-08T00:44:30;16.70;;;10.50;;
4309;SDS011;2168;53.576;9.980;2023-04-08T00:46:55;2.50;;;1.90;;
4309;SDS011;2168;53.576;9.980;2023-04-08T00:49:21;0.20;;;0.20;;
4309;SDS011;2168;53.576;9.980;2023-04-08T00:51:46;0.10;;;0.10;;
4309;SDS011;2168;53.576;9.980;2023-04-08T00:54:11;0.10;;;0.10;;
4309;SDS011;2168;53.576;9.980;2023-04-08T00:56:36;1.47;;;0.97;;
4309;SDS011;2168;53.576;9.980;2023-04-08T00:59:02;8.30;;;5.00;;
4309;SDS011;2168;53.576;9.980;2023-04-08T01:06:40;0.17;;;0.17;;
4309;SDS011;2168;53.576;9.980;2023-04-08T01:09:10;0.10;;;0.10;;
4309;SDS011;2168;53.576;9.980;2023-04-08T01:11:37;0.10;;;0.10;;
4309;SDS011;2168;53.576;9.980;2023-04-08T01:14:03;0.10;;;0.10;;
4309;SDS011;2168;53.576;9.980;2023-04-08T01:16:30;0.10;;;0.10;;
4309;SDS011;2168;53.576;9.980;2023-04-08T01:18:56;0.10;;;0.10;;
4309;SDS011;2168;53.576;9.980;2023-04-08T01:21:21;0.20;;;0.20;;
4309;SDS011;2168;53.576;9.980;2023-04-08T01:23:56;0.10;;;0.10;;
4309;SDS011;2168;53.576;9.980;2023-04-08T01:26:24;0.20;;;0.20;;
4309;SDS011;2168;53.576;9.980;2023-04-08T01:28:49;0.10;;;0.10;;
4309;SDS011;2168;53.576;9.980;2023-04-08T01:31:16;0.20;;;0.20;;
4309;SDS011;2168;53.576;9.980;2023-04-08T01:33:42;0.10;;;0.10;;
4309;SDS011;2168;53.576;9.980;2023-04-08T01:36:08;0.20;;;0.20;;
4309;SDS011;2168;53.576;9.980;2023-04-08T01:38:34;0.13;;;0.13;;
4309;SDS011;2168;53.576;9.980;2023-04-08T01:41:00;0.10;;;0.10;;
4309;SDS011;2168;53.576;9.980;2023-04-08T01:43:25;0.10;;;0.10;;
4309;SDS011;2168;53.576;9.980;2023-04-08T01:45:51;0.10;;;0.10;;
4309;SDS011;2168;53.576;9.980;2023-04-08T01:48:18;0.10;;;0.10;;
4309;SDS011;2168;53.576;9.980;2023-04-08T01:50:44;0.13;;;0.13;;
4309;SDS011;2168;53.576;9.980;2023-04-08T01:53:10;0.17;;;0.17;;
4309;SDS011;2168;53.576;9.980;2023-04-08T01:55:36;0.10;;;0.10;;
4309;SDS011;2168;53.576;9.980;2023-04-08T01:58:02;0.10;;;0.10;;
4309;SDS011;2168;53.576;9.980;2023-04-08T02:00:29;0.10;;;0.10;;
4309;SDS011;2168;53.576;9.980;2023-04-08T02:02:56;0.27;;;0.27;;
4309;SDS011;2168;53.576;9.980;2023-04-08T02:05:21;14.70;;;9.03;;
4309;SDS011;2168;53.576;9.980;2023-04-08T02:07:47;13.37;;;8.73;;
4309;SDS011;2168;53.576;9.980;2023-04-08T02:10:12;15.97;;;8.60;;
4309;SDS011;2168;53.576;9.980;2023-04-08T02:12:37;12.93;;;7.80;;
4309;SDS011;2168;53.576;9.980;2023-04-08T02:15:03;11.47;;;8.50;;
4309;SDS011;2168;53.576;9.980;2023-04-08T02:17:31;9.73;;;7.83;;
4309;SDS011;2168;53.576;9.980;2023-04-08T02:25:22;13.37;;;9.40;;
4309;SDS011;2168;53.576;9.980;2023-04-08T02:27:48;11.30;;;8.07;;
4309;SDS011;2168;53.576;9.980;2023-04-08T02:30:14;13.30;;;8.07;;
4309;SDS011;2168;53.576;9.980;2023-04-08T02:32:39;13.53;;;8.57;;
4309;SDS011;2168;53.576;9.980;2023-04-08T02:35:05;10.87;;;6.93;;
4309;SDS011;2168;53.576;9.980;2023-04-08T02:37:31;10.90;;;7.90;;
4309;SDS011;2168;53.576;9.980;2023-04-08T02:39:56;14.03;;;7.50;;
4309;SDS011;2168;53.576;9.980;2023-04-08T02:42:21;10.70;;;7.80;;
4309;SDS011;2168;53.576;9.980;2023-04-08T02:44:47;11.40;;;8.60;;
4309;SDS011;2168;53.576;9.980;2023-04-08T02:47:12;13.33;;;8.00;;
4309;SDS011;2168;53.576;9.980;2023-04-08T02:49:37;11.30;;;7.50;;
4309;SDS011;2168;53.576;9.980;2023-04-08T02:52:02;10.50;;;7.70;;
4309;SDS011;2168;53.576;9.980;2023-04-08T02:54:28;8.80;;;7.40;;
4309;SDS011;2168;53.576;9.980;2023-04-08T02:56:53;11.53;;;8.83;;
4309;SDS011;2168;53.576;9.980;2023-04-08T02:59:18;11.20;;;7.60;;
4309;SDS011;2168;53.576;9.980;2023-04-08T03:01:44;14.80;;;8.37;;
4309;SDS011;2168;53.576;9.980;2023-04-08T03:04:09;12.53;;;8.30;;
4309;SDS011;2168;53.576;9.980;2023-04-08T03:06:34;11.40;;;8.03;;
4309;SDS011;2168;53.576;9.980;2023-04-08T03:08:59;17.40;;;9.40;;
4309;SDS011;2168;53.576;9.980;2023-04-08T03:11:25;17.43;;;9.40;;
4309;SDS011;2168;53.576;9.980;2023-04-08T03:13:50;12.73;;;10.03;;
4309;SDS011;2168;53.576;9.980;2023-04-08T03:16:15;15.23;;;9.90;;
4309;SDS011;2168;53.576;9.980;2023-04-08T03:18:40;12.20;;;9.00;;
4309;SDS011;2168;53.576;9.980;2023-04-08T03:21:06;13.80;;;10.03;;
4309;SDS011;2168;53.576;9.980;2023-04-08T03:23:31;14.20;;;9.63;;
4309;SDS011;2168;53.576;9.980;2023-04-08T03:25:56;17.20;;;9.90;;
4309;SDS011;2168;53.576;9.980;2023-04-08T03:28:21;16.47;;;9.73;;
4309;SDS011;2168;53.576;9.980;2023-04-08T03:30:47;16.67;;;10.23;;
4309;SDS011;2168;53.576;9.980;2023-04-08T03:33:13;13.17;;;9.90;;
4309;SDS011;2168;53.576;9.980;2023-04-08T03:35:38;18.93;;;10.60;;
4309;SDS011;2168;53.576;9.980;2023-04-08T03:38:03;18.73;;;11.63;;
4309;SDS011;2168;53.576;9.980;2023-04-08T03:40:28;20.10;;;11.50;;
4309;SDS011;2168;53.576;9.980;2023-04-08T03:42:54;18.93;;;11.67;;
4309;SDS011;2168;53.576;9.980;2023-04-08T03:45:19;19.43;;;11.77;;
4309;SDS011;2168;53.576;9.980;2023-04-08T03:47:44;22.73;;;12.67;;
4309;SDS011;2168;53.576;9.980;2023-04-08T03:50:09;20.30;;;11.70;;
4309;SDS011;2168;53.576;9.980;2023-04-08T03:52:35;20.60;;;12.40;;
4309;SDS011;2168;53.576;9.980;2023-04-08T03:55:00;22.93;;;11.87;;
4309;SDS011;2168;53.576;9.980;2023-04-08T03:57:25;20.87;;;12.60;;
4309;SDS011;2168;53.576;9.980;2023-04-08T03:59:50;22.57;;;12.93;;
4309;SDS011;2168;53.576;9.980;2023-04-08T04:02:15;23.30;;;12.80;;
4309;SDS011;2168;53.576;9.980;2023-04-08T04:04:41;27.30;;;12.93;;
4309;SDS011;2168;53.576;9.980;2023-04-08T04:07:06;24.60;;;14.07;;
4309;SDS011;2168;53.576;9.980;2023-04-08T04:09:31;29.50;;;14.07;;
4309;SDS011;2168;53.576;9.980;2023-04-08T04:11:56;23.57;;;13.60;;
4309;SDS011;2168;53.576;9.980;2023-04-08T04:14:21;26.83;;;13.77;;
4309;SDS011;2168;53.576;9.980;2023-04-08T04:16:46;22.40;;;13.40;;
4309;SDS011;2168;53.576;9.980;2023-04-08T04:19:11;28.13;;;13.50;;
4309;SDS011;2168;53.576;9.980;2023-04-08T04:21:37;26.10;;;15.00;;
4309;SDS011;2168;53.576;9.980;2023-04-08T04:24:02;26.37;;;14.43;;
4309;SDS011;2168;53.576;9.980;2023-04-08T04:26:27;24.30;;;12.87;;
4309;SDS011;2168;53.576;9.980;2023-04-08T04:28:52;33.47;;;13.73;;
4309;SDS011;2168;53.576;9.980;2023-04-08T04:31:21;27.47;;;14.63;;
4309;SDS011;2168;53.576;9.980;2023-04-08T04:33:47;25.97;;;15.03;;
4309;SDS011;2168;53.576;9.980;2023-04-08T04:36:13;32.10;;;14.57;;
4309;SDS011;2168;53.576;9.980;2023-04-08T04:38:38;28.00;;;14.13;;
4309;SDS011;2168;53.576;9.980;2023-04-08T04:41:03;31.07;;;15.40;;
4309;SDS011;2168;53.576;9.980;2023-04-08T04:43:28;28.47;;;14.40;;
4309;SDS011;2168;53.576;9.980;2023-04-08T04:45:54;31.27;;;14.93;;
4309;SDS011;2168;53.576;9.980;2023-04-08T04:48:19;26.63;;;13.83;;
4309;SDS011;2168;53.576;9.980;2023-04-08T04:50:44;23.70;;;14.23;;
4309;SDS011;2168;53.576;9.980;2023-04-08T04:53:18;24.40;;;14.47;;
4309;SDS011;2168;53.576;9.980;2023-04-08T04:55:43;25.90;;;12.73;;
4309;SDS011;2168;53.576;9.980;2023-04-08T04:58:08;27.30;;;14.07;;
4309;SDS011;2168;53.576;9.980;2023-04-08T05:00:33;25.10;;;13.83;;
4309;SDS011;2168;53.576;9.980;2023-04-08T05:02:58;22.97;;;12.73;;
4309;SDS011;2168;53.576;9.980;2023-04-08T05:05:23;29.40;;;13.50;;
4309;SDS011;2168;53.576;9.980;2023-04-08T05:07:49;27.00;;;14.30;;
4309;SDS011;2168;53.576;9.980;2023-04-08T05:10:14;26.37;;;13.57;;
4309;SDS011;2168;53.576;9.980;2023-04-08T05:12:39;27.13;;;13.70;;
4309;SDS011;2168;53.576;9.980;2023-04-08T05:15:05;21.20;;;13.17;;
4309;SDS011;2168;53.576;9.980;2023-04-08T05:17:31;23.37;;;14.17;;
4309;SDS011;2168;53.576;9.980;2023-04-08T05:19:56;28.50;;;14.90;;
4309;SDS011;2168;53.576;9.980;2023-04-08T05:22:21;30.53;;;13.33;;
4309;SDS011;2168;53.576;9.980;2023-04-08T05:24:46;29.77;;;13.63;;
4309;SDS011;2168;53.576;9.980;2023-04-08T05:27:12;23.03;;;14.50;;
4309;SDS011;2168;53.576;9.980;2023-04-08T05:29:37;27.20;;;14.13;;
4309;SDS011;2168;53.576;9.980;2023-04-08T05:32:02;28.80;;;12.47;;
4309;SDS011;2168;53.576;9.980;2023-04-08T05:34:29;27.27;;;13.90;;
4309;SDS011;2168;53.576;9.980;2023-04-08T05:36:55;29.90;;;15.60;;
4309;SDS011;2168;53.576;9.980;2023-04-08T05:39:20;23.30;;;12.87;;
4309;SDS011;2168;53.576;9.980;2023-04-08T05:41:45;27.03;;;14.20;;
4309;SDS011;2168;53.576;9.980;2023-04-08T05:44:11;24.13;;;12.70;;
4309;SDS011;2168;53.576;9.980;2023-04-08T05:46:36;29.13;;;14.00;;
4309;SDS011;2168;53.576;9.980;2023-04-08T05:49:02;26.13;;;13.63;;
4309;SDS011;2168;53.576;9.980;2023-04-08T05:51:27;27.40;;;13.97;;
4309;SDS011;2168;53.576;9.980;2023-04-08T05:53:52;26.03;;;13.90;;
4309;SDS011;2168;53.576;9.980;2023-04-08T05:56:17;26.67;;;13.70;;
4309;SDS011;2168;53.576;9.980;2023-04-08T05:58:43;28.57;;;14.23;;
4309;SDS011;2168;53.576;9.980;2023-04-08T06:01:08;30.43;;;13.33;;
4309;SDS011;2168;53.576;9.980;2023-04-08T06:03:33;22.20;;;13.73;;
4309;SDS011;2168;53.576;9.980;2023-04-08T06:05:58;25.03;;;13.27;;
4309;SDS011;2168;53.576;9.980;2023-04-08T06:08:23;27.60;;;13.17;;
4309;SDS011;2168;53.576;9.980;2023-04-08T06:10:49;24.53;;;14.10;;
4309;SDS011;2168;53.576;9.980;2023-04-08T06:13:14;22.50;;;13.97;;
4309;SDS011;2168;53.576;9.980;2023-04-08T06:15:40;24.63;;;13.40;;
4309;SDS011;2168;53.576;9.980;2023-04-08T06:18:05;37.23;;;16.03;;
4309;SDS011;2168;53.576;9.980;2023-04-08T06:20:30;22.43;;;13.03;;
4309;SDS011;2168;53.576;9.980;2023-04-08T06:22:56;38.27;;;14.07;;
4309;SDS011;2168;53.576;9.980;2023-04-08T06:25:21;30.00;;;13.47;;
4309;SDS011;2168;53.576;9.980;2023-04-08T06:27:47;26.53;;;15.27;;
4309;SDS011;2168;53.576;9.980;2023-04-08T06:30:12;28.87;;;14.50;;
4309;SDS011;2168;53.576;9.980;2023-04-08T06:32:37;26.33;;;13.60;;
4309;SDS011;2168;53.576;9.980;2023-04-08T06:35:02;31.87;;;14.47;;
4309;SDS011;2168;53.576;9.980;2023-04-08T06:37:28;29.30;;;14.60;;
4309;SDS011;2168;53.576;9.980;2023-04-08T06:39:53;27.77;;;13.70;;
4309;SDS011;2168;53.576;9.980;2023-04-08T06:42:18;22.70;;;14.03;;
4309;SDS011;2168;53.576;9.980;2023-04-08T06:44:43;24.87;;;12.90;;
4309;SDS011;2168;53.576;9.980;2023-04-08T06:47:09;23.83;;;12.97;;
4309;SDS011;2168;53.576;9.980;2023-04-08T06:49:34;23.17;;;13.43;;
4309;SDS011;2168;53.576;9.980;2023-04-08T06:51:59;24.37;;;13.37;;
4309;SDS011;2168;53.576;9.980;2023-04-08T06:54:24;23.50;;;13.27;;
4309;SDS011;2168;53.576;9.980;2023-04-08T06:56:49;25.20;;;13.50;;
4309;SDS011;2168;53.576;9.980;2023-04-08T06:59:15;21.87;;;12.13;;
4309;SDS011;2168;53.576;9.980;2023-04-08T07:01:40;21.47;;;14.20;;
4309;SDS011;2168;53.576;9.980;2023-04-08T07:04:05;25.77;;;13.60;;
4309;SDS011;2168;53.576;9.980;2023-04-08T07:06:30;24.83;;;14.43;;
4309;SDS011;2168;53.576;9.980;2023-04-08T07:08:56;28.70;;;12.20;;
4309;SDS011;2168;53.576;9.980;2023-04-08T07:11:21;26.50;;;13.27;;
4309;SDS011;2168;53.576;9.980;2023-04-08T07:13:46;28.57;;;14.93;;
4309;SDS011;2168;53.576;9.980;2023-04-08T07:16:11;26.43;;;14.97;;
4309;SDS011;2168;53.576;9.980;2023-04-08T07:18:37;28.17;;;14.70;;
4309;SDS011;2168;53.576;9.980;2023-04-08T07:21:02;27.57;;;14.10;;
4309;SDS011;2168;53.576;9.980;2023-04-08T07:23:27;25.70;;;13.20;;
4309;SDS011;2168;53.576;9.980;2023-04-08T07:25:52;26.27;;;13.50;;
4309;SDS011;2168;53.576;9.980;2023-04-08T07:28:20;25.53;;;13.63;;
4309;SDS011;2168;53.576;9.980;2023-04-08T07:30:45;24.30;;;12.57;;
4309;SDS011;2168;53.576;9.980;2023-04-08T07:33:11;22.90;;;12.40;;
4309;SDS011;2168;53.576;9.980;2023-04-08T07:35:36;21.97;;;12.13;;
4309;SDS011;2168;53.576;9.980;2023-04-08T07:38:01;21.10;;;11.90;;
4309;SDS011;2168;53.576;9.980;2023-04-08T07:40:26;22.97;;;13.53;;
4309;SDS011;2168;53.576;9.980;2023-04-08T07:42:52;25.63;;;13.73;;
4309;SDS011;2168;53.576;9.980;2023-04-08T07:45:17;24.07;;;13.30;;
4309;SDS011;2168;53.576;9.980;2023-04-08T07:47:42;24.23;;;12.43;;
4309;SDS011;2168;53.576;9.980;2023-04-08T07:50:08;23.73;;;13.47;;
4309;SDS011;2168;53.576;9.980;2023-04-08T07:52:33;18.13;;;12.00;;
4309;SDS011;2168;53.576;9.980;2023-04-08T07:54:58;21.63;;;11.93;;
4309;SDS011;2168;53.576;9.980;2023-04-08T07:57:24;21.37;;;12.10;;
4309;SDS011;2168;53.576;9.980;2023-04-08T07:59:50;20.80;;;11.80;;
4309;SDS011;2168;53.576;9.980;2023-04-08T08:02:15;18.33;;;11.17;;
4309;SDS011;2168;53.576;9.980;2023-04-08T08:04:40;19.80;;;11.17;;
4309;SDS011;2168;53.576;9.980;2023-04-08T08:07:05;18.77;;;11.10;;
4309;SDS011;2168;53.576;9.980;2023-04-08T08:09:30;22.57;;;11.40;;
4309;SDS011;2168;53.576;9.980;2023-04-08T08:11:56;21.13;;;12.60;;
4309;SDS011;2168;53.576;9.980;2023-04-08T08:14:21;16.93;;;10.40;;
4309;SDS011;2168;53.576;9.980;2023-04-08T08:16:46;22.83;;;11.03;;
4309;SDS011;2168;53.576;9.980;2023-04-08T08:19:12;17.60;;;11.00;;
4309;SDS011;2168;53.576;9.980;2023-04-08T08:21:38;19.83;;;11.97;;
4309;SDS011;2168;53.576;9.980;2023-04-08T08:24:03;17.23;;;10.47;;
4309;SDS011;2168;53.576;9.980;2023-04-08T08:26:28;16.30;;;10.50;;
4309;SDS011;2168;53.576;9.980;2023-04-08T08:28:54;21.47;;;11.00;;
4309;SDS011;2168;53.576;9.980;2023-04-08T08:31:20;20.40;;;9.40;;
4309;SDS011;2168;53.576;9.980;2023-04-08T08:33:45;21.10;;;9.47;;
4309;SDS011;2168;53.576;9.980;2023-04-08T08:36:11;17.57;;;9.23;;
4309;SDS011;2168;53.576;9.980;2023-04-08T08:38:36;15.70;;;9.90;;
4309;SDS011;2168;53.576;9.980;2023-04-08T08:41:01;17.93;;;10.03;;
4309;SDS011;2168;53.576;9.980;2023-04-08T08:43:28;18.27;;;10.27;;
4309;SDS011;2168;53.576;9.980;2023-04-08T08:45:53;18.73;;;9.87;;
4309;SDS011;2168;53.576;9.980;2023-04-08T08:48:18;22.50;;;10.77;;
4309;SDS011;2168;53.576;9.980;2023-04-08T08:50:44;18.37;;;9.93;;
4309;SDS011;2168;53.576;9.980;2023-04-08T08:53:10;24.00;;;11.83;;
4309;SDS011;2168;53.576;9.980;2023-04-08T08:55:35;19.53;;;11.00;;
4309;SDS011;2168;53.576;9.980;2023-04-08T08:58:00;21.97;;;10.33;;
4309;SDS011;2168;53.576;9.980;2023-04-08T09:00:47;15.20;;;10.33;;
4309;SDS011;2168;53.576;9.980;2023-04-08T09:03:19;17.97;;;10.10;;
4309;SDS011;2168;53.576;9.980;2023-04-08T09:05:48;16.47;;;9.10;;
4309;SDS011;2168;53.576;9.980;2023-04-08T09:10:51;19.83;;;9.83;;
4309;SDS011;2168;53.576;9.980;2023-04-08T09:13:16;19.83;;;10.40;;
4309;SDS011;2168;53.576;9.980;2023-04-08T09:16:03;22.93;;;10.60;;
4309;SDS011;2168;53.576;9.980;2023-04-08T09:18:27;17.97;;;9.97;;
4309;SDS011;2168;53.576;9.980;2023-04-08T09:20:53;18.67;;;10.07;;
4309;SDS011;2168;53.576;9.980;2023-04-08T09:23:18;17.37;;;9.90;;
4309;SDS011;2168;53.576;9.980;2023-04-08T09:25:43;20.27;;;11.20;;
4309;SDS011;2168;53.576;9.980;2023-04-08T09:28:21;18.40;;;10.33;;
4309;SDS011;2168;53.576;9.980;2023-04-08T09:30:46;16.73;;;10.00;;
4309;SDS011;2168;53.576;9.980;2023-04-08T09:33:11;20.60;;;9.93;;
4309;SDS011;2168;53.576;9.980;2023-04-08T09:35:37;19.40;;;10.60;;
4309;SDS011;2168;53.576;9.980;2023-04-08T09:38:02;17.80;;;9.40;;
4309;SDS011;2168;53.576;9.980;2023-04-08T09:40:28;14.80;;;10.90;;
4309;SDS011;2168;53.576;9.980;2023-04-08T09:42:56;15.60;;;9.90;;
4309;SDS011;2168;53.576;9.980;2023-04-08T09:45:23;18.50;;;10.80;;
4309;SDS011;2168;53.576;9.980;2023-04-08T09:47:51;26.63;;;10.37;;
4309;SDS011;2168;53.576;9.980;2023-04-08T09:50:21;18.17;;;9.93;;
4309;SDS011;2168;53.576;9.980;2023-04-08T09:52:48;17.30;;;10.63;;
4309;SDS011;2168;53.576;9.980;2023-04-08T09:55:20;14.50;;;8.83;;
4309;SDS011;2168;53.576;9.980;2023-04-08T09:57:50;15.40;;;9.43;;
4309;SDS011;2168;53.576;9.980;2023-04-08T10:00:17;15.50;;;10.17;;
4309;SDS011;2168;53.576;9.980;2023-04-08T10:05:21;14.50;;;9.47;;
4309;SDS011;2168;53.576;9.980;2023-04-08T10:07:47;14.80;;;10.30;;
4309;SDS011;2168;53.576;9.980;2023-04-08T10:10:12;13.23;;;9.87;;
4309;SDS011;2168;53.576;9.980;2023-04-08T10:12:38;13.57;;;10.30;;
4309;SDS011;2168;53.576;9.980;2023-04-08T10:15:25;15.80;;;10.57;;
4309;SDS011;2168;53.576;9.980;2023-04-08T10:17:49;17.70;;;10.70;;
4309;SDS011;2168;53.576;9.980;2023-04-08T10:21:00;17.10;;;11.90;;
4309;SDS011;2168;53.576;9.980;2023-04-08T10:27:51;21.73;;;11.07;;
4309;SDS011;2168;53.576;9.980;2023-04-08T10:32:57;16.97;;;11.40;;
4309;SDS011;2168;53.576;9.980;2023-04-08T10:35:28;21.43;;;10.50;;
4309;SDS011;2168;53.576;9.980;2023-04-08T10:37:54;18.80;;;9.93;;
4309;SDS011;2168;53.576;9.980;2023-04-08T10:40:19;14.17;;;9.63;;
4309;SDS011;2168;53.576;9.980;2023-04-08T10:42:45;17.23;;;10.03;;
4309;SDS011;2168;53.576;9.980;2023-04-08T10:45:10;15.33;;;9.80;;
4309;SDS011;2168;53.576;9.980;2023-04-08T10:47:40;16.00;;;10.13;;
4309;SDS011;2168;53.576;9.980;2023-04-08T10:50:11;19.93;;;10.50;;
4309;SDS011;2168;53.576;9.980;2023-04-08T10:52:44;14.57;;;10.47;;
4309;SDS011;2168;53.576;9.980;2023-04-08T10:55:09;19.70;;;11.40;;
4309;SDS011;2168;53.576;9.980;2023-04-08T10:57:35;17.80;;;11.47;;
4309;SDS011;2168;53.576;9.980;2023-04-08T11:00:01;22.07;;;10.17;;
4309;SDS011;2168;53.576;9.980;2023-04-08T11:02:31;21.73;;;11.10;;
4309;SDS011;2168;53.576;9.980;2023-04-08T11:04:57;22.07;;;12.43;;
4309;SDS011;2168;53.576;9.980;2023-04-08T11:07:24;23.47;;;11.87;;
4309;SDS011;2168;53.576;9.980;2023-04-08T11:09:49;18.67;;;12.03;;
4309;SDS011;2168;53.576;9.980;2023-04-08T11:12:14;20.27;;;12.97;;
4309;SDS011;2168;53.576;9.980;2023-04-08T11:14:42;20.80;;;13.53;;
4309;SDS011;2168;53.576;9.980;2023-04-08T11:17:07;20.77;;;13.47;;
4309;SDS011;2168;53.576;9.980;2023-04-08T11:19:34;20.90;;;14.07;;
4309;SDS011;2168;53.576;9.980;2023-04-08T11:22:00;22.13;;;13.07;;
4309;SDS011;2168;53.576;9.980;2023-04-08T11:24:26;20.90;;;12.97;;
4309;SDS011;2168;53.576;9.980;2023-04-08T11:26:52;22.97;;;13.40;;
4309;SDS011;2168;53.576;9.980;2023-04-08T11:29:17;23.00;;;13.83;;
4309;SDS011;2168;53.576;9.980;2023-04-08T11:31:43;22.40;;;14.10;;
4309;SDS011;2168;53.576;9.980;2023-04-08T11:34:08;24.90;;;13.03;;
4309;SDS011;2168;53.576;9.980;2023-04-08T11:36:34;21.80;;;13.80;;
4309;SDS011;2168;53.576;9.980;2023-04-08T11:39:05;24.70;;;14.13;;
4309;SDS011;2168;53.576;9.980;2023-04-08T11:41:36;23.20;;;15.13;;
4309;SDS011;2168;53.576;9.980;2023-04-08T11:44:03;22.20;;;13.33;;
4309;SDS011;2168;53.576;9.980;2023-04-08T11:46:29;20.57;;;14.20;;
4309;SDS011;2168;53.576;9.980;2023-04-08T11:51:23;20.73;;;13.93;;
4309;SDS011;2168;53.576;9.980;2023-04-08T11:53:48;27.67;;;15.07;;
4309;SDS011;2168;53.576;9.980;2023-04-08T11:56:19;22.00;;;14.13;;
4309;SDS011;2168;53.576;9.980;2023-04-08T11:58:45;27.83;;;15.30;;
4309;SDS011;2168;53.576;9.980;2023-04-08T12:01:10;21.57;;;14.63;;
4309;SDS011;2168;53.576;9.980;2023-04-08T12:03:36;22.83;;;15.13;;
4309;SDS011;2168;53.576;9.980;2023-04-08T12:06:01;20.90;;;12.90;;
4309;SDS011;2168;53.576;9.980;2023-04-08T12:08:26;17.90;;;12.20;;
4309;SDS011;2168;53.576;9.980;2023-04-08T12:10:52;21.90;;;12.37;;
4309;SDS011;2168;53.576;9.980;2023-04-08T12:13:17;17.30;;;12.27;;
4309;SDS011;2168;53.576;9.980;2023-04-08T12:15:43;24.90;;;13.20;;
4309;SDS011;2168;53.576;9.980;2023-04-08T12:18:08;22.43;;;13.40;;
4309;SDS011;2168;53.576;9.980;2023-04-08T12:20:33;25.40;;;13.57;;
4309;SDS011;2168;53.576;9.980;2023-04-08T12:22:58;22.20;;;12.60;;
4309;SDS011;2168;53.576;9.980;2023-04-08T12:25:24;25.13;;;14.40;;
4309;SDS011;2168;53.576;9.980;2023-04-08T12:27:49;20.07;;;13.67;;
4309;SDS011;2168;53.576;9.980;2023-04-08T12:30:14;23.00;;;13.20;;
4309;SDS011;2168;53.576;9.980;2023-04-08T12:32:40;21.73;;;13.83;;
4309;SDS011;2168;53.576;9.980;2023-04-08T12:35:06;22.10;;;12.90;;
4309;SDS011;2168;53.576;9.980;2023-04-08T12:37:32;20.80;;;13.17;;
4309;SDS011;2168;53.576;9.980;2023-04-08T12:39:57;19.70;;;12.43;;
4309;SDS011;2168;53.576;9.980;2023-04-08T12:42:22;20.93;;;12.60;;
4309;SDS011;2168;53.576;9.980;2023-04-08T12:44:47;20.10;;;12.53;;
4309;SDS011;2168;53.576;9.980;2023-04-08T12:47:12;19.20;;;13.20;;
4309;SDS011;2168;53.576;9.980;2023-04-08T12:49:38;24.67;;;12.57;;
4309;SDS011;2168;53.576;9.980;2023-04-08T12:52:03;16.83;;;11.93;;
4309;SDS011;2168;53.576;9.980;2023-04-08T12:54:29;18.17;;;12.90;;
4309;SDS011;2168;53.576;9.980;2023-04-08T12:56:55;23.97;;;13.00;;
4309;SDS011;2168;53.576;9.980;2023-04-08T12:59:21;20.80;;;13.73;;
4309;SDS011;2168;53.576;9.980;2023-04-08T13:01:46;22.23;;;13.60;;
4309;SDS011;2168;53.576;9.980;2023-04-08T13:04:11;19.23;;;12.57;;
4309;SDS011;2168;53.576;9.980;2023-04-08T13:06:37;22.50;;;13.60;;
4309;SDS011;2168;53.576;9.980;2023-04-08T13:09:02;23.87;;;14.17;;
4309;SDS011;2168;53.576;9.980;2023-04-08T13:11:27;20.63;;;13.87;;
4309;SDS011;2168;53.576;9.980;2023-04-08T13:13:52;19.07;;;12.70;;
4309;SDS011;2168;53.576;9.980;2023-04-08T13:16:17;21.73;;;12.60;;
4309;SDS011;2168;53.576;9.980;2023-04-08T13:18:43;19.93;;;12.60;;
4309;SDS011;2168;53.576;9.980;2023-04-08T13:21:08;20.07;;;13.37;;
4309;SDS011;2168;53.576;9.980;2023-04-08T13:23:33;17.77;;;12.40;;
4309;SDS011;2168;53.576;9.980;2023-04-08T13:25:59;16.43;;;11.40;;
4309;SDS011;2168;53.576;9.980;2023-04-08T13:28:24;21.73;;;13.13;;
4309;SDS011;2168;53.576;9.980;2023-04-08T13:30:49;20.13;;;12.73;;
4309;SDS011;2168;53.576;9.980;2023-04-08T13:33:15;20.17;;;12.50;;
4309;SDS011;2168;53.576;9.980;2023-04-08T13:35:41;19.63;;;13.77;;
4309;SDS011;2168;53.576;9.980;2023-04-08T13:38:06;17.00;;;12.73;;
4309;SDS011;2168;53.576;9.980;2023-04-08T13:40:31;17.60;;;12.10;;
4309;SDS011;2168;53.576;9.980;2023-04-08T13:42:57;22.70;;;13.60;;
4309;SDS011;2168;53.576;9.980;2023-04-08T13:45:22;19.23;;;12.10;;
4309;SDS011;2168;53.576;9.980;2023-04-08T13:47:47;15.73;;;11.10;;
4309;SDS011;2168;53.576;9.980;2023-04-08T13:50:13;17.50;;;12.53;;
4309;SDS011;2168;53.576;9.980;2023-04-08T13:52:38;18.70;;;12.23;;
4309;SDS011;2168;53.576;9.980;2023-04-08T13:55:03;22.17;;;12.67;;
4309;SDS011;2168;53.576;9.980;2023-04-08T13:57:29;17.37;;;13.53;;
4309;SDS011;2168;53.576;9.980;2023-04-08T13:59:54;17.20;;;13.27;;
4309;SDS011;2168;53.576;9.980;2023-04-08T14:02:19;20.17;;;12.93;;
4309;SDS011;2168;53.576;9.980;2023-04-08T14:04:45;18.60;;;12.47;;
4309;SDS011;2168;53.576;9.980;2023-04-08T14:07:11;20.03;;;12.10;;
4309;SDS011;2168;53.576;9.980;2023-04-08T14:09:37;20.93;;;13.20;;
4309;SDS011;2168;53.576;9.980;2023-04-08T14:12:03;22.53;;;12.73;;
4309;SDS011;2168;53.576;9.980;2023-04-08T14:14:28;22.33;;;13.20;;
4309;SDS011;2168;53.576;9.980;2023-04-08T14:16:53;20.77;;;13.30;;
4309;SDS011;2168;53.576;9.980;2023-04-08T14:19:18;18.13;;;12.50;;
4309;SDS011;2168;53.576;9.980;2023-04-08T14:21:44;19.93;;;13.40;;
4309;SDS011;2168;53.576;9.980;2023-04-08T14:24:09;18.10;;;13.50;;
4309;SDS011;2168;53.576;9.980;2023-04-08T14:26:34;20.23;;;13.37;;
4309;SDS011;2168;53.576;9.980;2023-04-08T14:29:04;23.30;;;15.50;;
4309;SDS011;2168;53.576;9.980;2023-04-08T14:31:29;23.13;;;14.37;;
4309;SDS011;2168;53.576;9.980;2023-04-08T14:33:55;19.80;;;13.70;;
4309;SDS011;2168;53.576;9.980;2023-04-08T14:36:20;19.20;;;14.03;;
4309;SDS011;2168;53.576;9.980;2023-04-08T14:38:48;29.43;;;14.20;;
4309;SDS011;2168;53.576;9.980;2023-04-08T14:41:13;20.60;;;13.40;;
4309;SDS011;2168;53.576;9.980;2023-04-08T14:43:38;22.50;;;14.03;;
4309;SDS011;2168;53.576;9.980;2023-04-08T14:46:03;20.33;;;13.47;;
4309;SDS011;2168;53.576;9.980;2023-04-08T14:48:28;22.13;;;14.23;;
4309;SDS011;2168;53.576;9.980;2023-04-08T14:50:55;21.27;;;15.00;;
4309;SDS011;2168;53.576;9.980;2023-04-08T14:53:20;19.43;;;13.83;;
4309;SDS011;2168;53.576;9.980;2023-04-08T14:55:46;23.90;;;14.80;;
4309;SDS011;2168;53.576;9.980;2023-04-08T14:58:11;21.83;;;14.43;;
4309;SDS011;2168;53.576;9.980;2023-04-08T15:00:36;21.20;;;14.50;;
4309;SDS011;2168;53.576;9.980;2023-04-08T15:03:03;21.40;;;14.93;;
4309;SDS011;2168;53.576;9.980;2023-04-08T15:05:28;19.33;;;14.47;;
4309;SDS011;2168;53.576;9.980;2023-04-08T15:07:53;17.70;;;13.90;;
4309;SDS011;2168;53.576;9.980;2023-04-08T15:10:18;24.90;;;15.30;;